Information Last Ob Photographs Calibration Meteogram Network Table Neighbors Monthly Summaries Observation History Wind Roses Custom Wind Roses Data Calendar Satellite Cloud Product Download

14 April 2024 Observation History, [AWG] WASHINGTON, timezone: America/Chicago

Select Date: Time Order:

Show METARs   Show High Frequency MADIS

Previous Day
Time Wind
(mph)
Vis.
(mi.)
Sky Cond.
(100s ft)
Present Wx Temperature (ºF) Relative
Humidity
Pressure Snow
Depth
(in)
Precipitation (in.)
Air Dwpt Feels Like 6 hour altimeter
(in.)
sea level
(mb)
1 hr 3 hr 6 hr
Max.Min.
12:15 AMSSW 17G 249 CLR
704570 40% 29.730
KAWG 140515Z AUTO 21015G21KT 9SM CLR 21/07 A2973 RMK AO2
12:35 AMSSW 17G 2510 CLR
724372 35% 29.730
KAWG 140535Z AUTO 21015G22KT 10SM CLR 22/06 A2973 RMK AO2
12:55 AMSW 18G 2410 CLR
704370 38% 29.720
KAWG 140555Z AUTO 22016G21KT 10SM CLR 21/06 A2972 RMK AO2
1:15 AMSW 15G 2110 CLR
704370 38% 29.720
KAWG 140615Z AUTO 22013G18KT 10SM CLR 21/06 A2972 RMK AO2
1:35 AMSW 16G 2310 CLR
704370 38% 29.710
KAWG 140635Z AUTO 22014G20KT 10SM CLR 21/06 A2971 RMK AO2
1:55 AMSW 1610 CLR
704170 35% 29.710
KAWG 140655Z AUTO 22014KT 10SM CLR 21/05 A2971 RMK AO2
2:15 AMSW 16G 2310 CLR
704170 35% 29.70
KAWG 140715Z AUTO 22014G20KT 10SM CLR 21/05 A2970 RMK AO2
2:35 AMSW 1510 CLR
684168 37% 29.70
KAWG 140735Z AUTO 22013KT 10SM CLR 20/05 A2970 RMK AO2
2:55 AMSW 1510 CLR
684168 37% 29.70
KAWG 140755Z AUTO 22013KT 10SM CLR 20/05 A2970 RMK AO2
3:15 AMSW 14 CLR
664166 40% 29.70
KAWG 140815Z AUTO 23012KT CLR 19/05 A2970 RMK AO2
3:35 AMSW 1410 CLR
664166 40% 29.70
KAWG 140835Z AUTO 22012KT 10SM CLR 19/05 A2970 RMK AO2
3:55 AMSW 14G 2010 CLR
664166 40% 29.70
KAWG 140855Z AUTO 22012G17KT 10SM CLR 19/05 A2970 RMK AO2
4:15 AMSW 1410 CLR
664366 43% 29.690
KAWG 140915Z AUTO 22012KT 10SM CLR 19/06 A2969 RMK AO2
4:35 AMSW 1310 CLR
664366 43% 29.690
KAWG 140935Z AUTO 22011KT 10SM CLR 19/06 A2969 RMK AO2
4:55 AMSW 1410 CLR
644364 45% 29.690
KAWG 140955Z AUTO 22012KT 10SM CLR 18/06 A2969 RMK AO2
5:15 AMSW 1310 CLR
644364 45% 29.690
KAWG 141015Z AUTO 22011KT 10SM CLR 18/06 A2969 RMK AO2
5:35 AMSW 1310 CLR
644364 45% 29.690
KAWG 141035Z AUTO 22011KT 10SM CLR 18/06 A2969 RMK AO2
5:55 AMSW 1310 CLR
644364 45% 29.70
KAWG 141055Z AUTO 22011KT 10SM CLR 18/06 A2970 RMK AO2
6:15 AMSW 12G 1710 CLR
644364 45% 29.70
KAWG 141115Z AUTO 22010G15KT 10SM CLR 18/06 A2970 RMK AO2
6:35 AMSW 1210 CLR
634563 52% 29.720
KAWG 141135Z AUTO 23010KT 10SM CLR 17/07 A2972 RMK AO2
6:55 AMWSW 910 CLR
634563 52% 29.730
KAWG 141155Z AUTO 25008KT 10SM CLR 17/07 A2973 RMK AO2
7:15 AMWSW 910 CLR
634563 52% 29.740
KAWG 141215Z AUTO 24008KT 10SM CLR 17/07 A2974 RMK AO2
7:35 AMWSW 1010 CLR
644664 52% 29.740
KAWG 141235Z AUTO 24009KT 10SM CLR 18/08 A2974 RMK AO2
7:55 AMSW 1210 CLR
644664 52% 29.740
KAWG 141255Z AUTO 23010KT 10SM CLR 18/08 A2974 RMK AO2
8:15 AMWSW 13G 1810 CLR
664666 49% 29.740
KAWG 141315Z AUTO 24011G16KT 10SM CLR 19/08 A2974 RMK AO2
8:35 AMW 1310 CLR
684868 49% 29.750
KAWG 141335Z AUTO 26011KT 10SM CLR 20/09 A2975 RMK AO2
8:55 AMWSW 1510 CLR
684868 49% 29.750
KAWG 141355Z AUTO 25013KT 10SM CLR 20/09 A2975 RMK AO2
9:15 AMW 14G 2210 CLR
724872 43% 29.750
KAWG 141415Z AUTO 26012G19KT 10SM CLR 22/09 A2975 RMK AO2
9:35 AMW 14G 2110 CLR
724872 43% 29.750
KAWG 141435Z AUTO 27012G18KT 10SM CLR 22/09 A2975 RMK AO2
9:55 AMW 15G 2110 CLR
734873 41% 29.760
KAWG 141455Z AUTO 28013G18KT 10SM CLR 23/09 A2976 RMK AO2
10:15 AMWNW 15G 2110 CLR
734873 41% 29.760
KAWG 141515Z AUTO 30013G18KT 10SM CLR 23/09 A2976 RMK AO2
10:35 AMWNW 12G 2010 CLR
754875 38% 29.770
KAWG 141535Z AUTO 29010G17KT 10SM CLR 24/09 A2977 RMK AO2
10:55 AMWNW 10G 1810 CLR
754875 38% 29.770
KAWG 141555Z AUTO 30009G16KT 10SM CLR 24/09 A2977 RMK AO2
11:15 AMWNW 1010 CLR
754875 38% 29.770
KAWG 141615Z AUTO 30009KT 10SM CLR 24/09 A2977 RMK AO2
11:35 AMWNW 910 CLR
774877 36% 29.770
KAWG 141635Z AUTO 29008KT 10SM CLR 25/09 A2977 RMK AO2
11:55 AMWNW 9G 1510 CLR
794879 34% 29.770
KAWG 141655Z AUTO 30008G13KT 280V340 10SM CLR 26/09 A2977 RMK AO2
12:15 PMNNW 910 CLR
794879 34% 29.760
KAWG 141715Z AUTO 33008KT 10SM CLR 26/09 A2976 RMK AO2
12:35 PMNNW 1310 CLR
814680 30% 29.770
KAWG 141735Z AUTO 33011KT 10SM CLR 27/08 A2977 RMK AO2
12:55 PMN 7G 1410 CLR
814680 30% 29.770
KAWG 141755Z AUTO 01006G12KT 10SM CLR 27/08 A2977 RMK AO2
1:15 PMNNE 810 CLR
814680 30% 29.770
KAWG 141815Z AUTO 03007KT 350V050 10SM CLR 27/08 A2977 RMK AO2
1:35 PMN 810 CLR
824681 28% 29.770
KAWG 141835Z AUTO 36007KT 10SM CLR 28/08 A2977 RMK AO2
1:55 PMN 10G 1710 CLR
844382 23% 29.770
KAWG 141855Z AUTO 01009G15KT 10SM CLR 29/06 A2977 RMK AO2

The IEM API webservice that provided data to this page. For more details, see documentation.

Data Notes

  • For recent years, this page also optionally shows observations from the MADIS High Frequency METAR dataset. This dataset had a problem with temperatures detailed here.